createdAt,value
2018-06-13T00:05:45.557Z,74.21
2018-06-13T00:11:13.176Z,74.46
2018-06-13T00:20:41.437Z,73.14
2018-06-13T00:27:08.011Z,74.44
2018-06-13T00:29:38.313Z,71.82
2018-06-13T00:57:43.852Z,73.95
2018-06-13T01:02:24.306Z,74.75
2018-06-13T01:18:01.641Z,72.66
2018-06-13T01:30:13.742Z,73.83
2018-06-13T01:36:05.971Z,74.99
2018-06-13T01:47:22.929Z,73.62
2018-06-13T01:56:15.927Z,75.73
2018-06-13T02:01:45.872Z,72.86
2018-06-13T02:07:47.885Z,74.77
2018-06-13T02:10:18.242Z,73.94
2018-06-13T02:12:48.640Z,73.62
2018-06-13T02:18:32.144Z,76.99
2018-06-13T02:21:02.404Z,76.76
2018-06-13T02:30:18.889Z,76.65
2018-06-13T02:38:54.209Z,76.39
2018-06-13T02:41:51.800Z,76.36
2018-06-13T02:47:31.738Z,75.82
2018-06-13T02:50:01.749Z,75.49
2018-06-13T02:52:31.951Z,75.16
2018-06-13T02:55:11.304Z,75.26
2018-06-13T02:57:41.404Z,75.24
2018-06-13T03:02:55.324Z,76.68
2018-06-13T03:09:21.703Z,75.66
2018-06-13T03:18:25.504Z,75.46
2018-06-13T03:20:57.920Z,75.01
2018-06-13T03:23:58.207Z,75.76
2018-06-13T03:30:16.716Z,75.03
2018-06-13T03:39:09.656Z,75.39
2018-06-13T03:47:40.536Z,75.43
2018-06-13T03:53:16.707Z,74.48
2018-06-13T04:00:12.680Z,75.96
2018-06-13T04:02:42.768Z,76.18
2018-06-13T04:11:06.182Z,76.33
2018-06-13T04:13:36.227Z,76.85
2018-06-13T04:16:13.243Z,76.17
2018-06-13T04:26:43.781Z,75.44
2018-06-13T04:36:21.321Z,76.21
2018-06-13T04:42:01.563Z,75.74
2018-06-13T04:44:31.569Z,75.78
2018-06-13T04:47:07.877Z,75.34
2018-06-13T04:49:37.934Z,76.08
2018-06-13T04:52:08.135Z,76.39
2018-06-13T04:54:38.563Z,75.32
2018-06-13T04:57:27.377Z,76.22
2018-06-13T05:03:07.036Z,75.71
2018-06-13T05:05:37.126Z,76.57
2018-06-13T05:11:17.501Z,76.15
2018-06-13T05:13:47.602Z,76.74
2018-06-13T05:22:26.995Z,76.09
2018-06-13T05:34:42.440Z,75.81
2018-06-13T05:37:41.221Z,74.96
2018-06-13T05:40:11.512Z,74.94
2018-06-13T05:42:41.804Z,74.82
2018-06-13T05:45:36.270Z,74.53
2018-06-13T05:48:06.308Z,75.26
2018-06-13T05:50:36.343Z,75.05
2018-06-13T05:53:28.955Z,74.93
2018-06-13T05:59:22.559Z,74.49
2018-06-13T06:05:02.435Z,74.09
2018-06-13T06:07:33.578Z,73.60
2018-06-13T06:10:27.985Z,74.81
2018-06-13T07:25:45.036Z,72.31
2018-06-13T07:32:22.883Z,70.94
2018-06-13T07:35:20.055Z,71.14
2018-06-13T07:42:51.843Z,69.39
2018-06-13T07:46:39.695Z,68.57
2018-06-13T08:05:49.237Z,67.17
2018-06-13T08:13:37.792Z,66.65
2018-06-13T08:28:51.408Z,65.93
2018-06-13T09:26:09.326Z,65.67
2018-06-13T09:34:42.139Z,64.80
2018-06-13T09:37:12.399Z,65.99
2018-06-13T09:42:40.461Z,65.88
2018-06-13T09:45:37.997Z,65.21
2018-06-13T09:51:40.199Z,64.59
2018-06-13T10:03:21.098Z,64.17
2018-06-13T10:16:01.832Z,61.77
2018-06-13T10:18:32.855Z,61.83
2018-06-13T10:21:03.598Z,62.55
2018-06-13T10:23:51.766Z,62.76
2018-06-13T10:26:33.093Z,60.38
2018-06-13T10:29:03.160Z,61.29
2018-06-13T10:31:39.931Z,60.08
2018-06-13T10:34:10.906Z,59.80
2018-06-13T10:43:07.558Z,59.66
2018-06-13T10:57:17.394Z,60.13
2018-06-13T11:07:45.120Z,58.99
2018-06-13T11:16:35.646Z,59.32
2018-06-13T11:20:14.362Z,59.05
2018-06-13T11:26:26.011Z,58.69
2018-06-13T11:32:01.167Z,58.83
2018-06-13T11:34:31.279Z,58.92
2018-06-13T11:43:16.483Z,57.96
2018-06-13T11:46:10.535Z,58.29
2018-06-13T11:52:42.039Z,59.19
2018-06-13T11:55:35.861Z,56.79
2018-06-13T12:11:29.532Z,54.80
2018-06-13T12:49:01.212Z,58.09
2018-06-13T16:35:53.580Z,52.16
2018-06-13T16:38:25.062Z,51.45
2018-06-13T16:40:59.167Z,52.01
2018-06-13T16:43:32.095Z,52.97
2018-06-13T16:46:02.297Z,52.52
2018-06-13T16:48:32.507Z,51.71
2018-06-13T16:51:19.225Z,52.79
2018-06-13T16:54:03.519Z,52.96
2018-06-13T16:56:33.499Z,52.74
2018-06-13T16:59:03.395Z,53.07
2018-06-13T17:01:33.238Z,55.05
2018-06-13T17:04:02.755Z,53.65
2018-06-13T17:06:32.623Z,52.71
2018-06-13T17:09:02.583Z,52.46
2018-06-13T17:11:32.448Z,53.09
2018-06-13T17:14:02.563Z,53.60
2018-06-13T17:16:32.537Z,52.75
2018-06-13T17:19:02.440Z,53.80
2018-06-13T17:21:32.750Z,53.46
2018-06-13T17:24:04.603Z,53.29
2018-06-13T17:27:59.664Z,54.47
2018-06-13T17:30:36.743Z,54.47
2018-06-13T17:33:12.875Z,53.61
2018-06-13T17:35:47.969Z,54.01
2018-06-13T17:41:00.379Z,52.76
2018-06-13T17:43:34.655Z,53.88
2018-06-13T17:48:42.886Z,55.72
2018-06-13T17:51:32.191Z,54.74
2018-06-13T17:54:02.178Z,54.83
2018-06-13T17:56:32.120Z,55.35
2018-06-13T18:02:04.490Z,55.13
2018-06-13T18:05:04.454Z,54.57
2018-06-13T18:07:34.323Z,55.69
2018-06-13T18:10:21.545Z,55.88
2018-06-13T18:12:55.880Z,55.20
2018-06-13T18:20:18.552Z,55.81
2018-06-13T18:23:05.044Z,56.56
2018-06-13T18:34:25.293Z,57.28
2018-06-13T18:37:05.390Z,56.25
2018-06-13T18:39:35.298Z,57.22
2018-06-13T18:42:05.918Z,58.00
2018-06-13T18:44:36.125Z,58.62
2018-06-13T18:47:06.105Z,57.54
2018-06-13T18:49:38.740Z,58.85
2018-06-13T18:55:56.723Z,57.70
2018-06-13T19:07:34.983Z,57.70
2018-06-13T19:10:05.013Z,57.65
2018-06-13T19:12:34.867Z,57.56
2018-06-13T19:15:05.549Z,58.23
2018-06-13T19:20:33.045Z,60.06
2018-06-13T19:23:02.714Z,61.68
2018-06-13T19:25:35.871Z,62.55
2018-06-13T19:28:07.015Z,62.01
2018-06-13T19:30:43.322Z,64.19
2018-06-13T19:33:14.756Z,64.17
2018-06-13T19:35:50.520Z,64.56
2018-06-13T19:38:29.427Z,65.04
2018-06-13T19:40:59.441Z,66.26
2018-06-13T19:43:36.330Z,64.22
2018-06-13T19:46:06.258Z,66.23
2018-06-13T19:48:45.896Z,65.54
2018-06-13T19:51:15.659Z,65.62
2018-06-13T19:53:55.517Z,66.91
2018-06-13T19:56:30.191Z,67.43
2018-06-13T19:59:00.363Z,68.92
2018-06-13T20:01:30.351Z,65.74
2018-06-13T20:04:05.530Z,67.20
2018-06-13T20:06:38.502Z,67.77
2018-06-13T20:09:12.074Z,69.62
2018-06-13T20:11:41.995Z,66.64
2018-06-13T20:14:16.799Z,64.92
2018-06-13T20:16:54.359Z,64.31
2018-06-13T20:19:29.277Z,66.84
2018-06-13T20:22:00.211Z,68.22
2018-06-13T20:24:36.036Z,69.70
2018-06-13T20:27:11.207Z,69.00
2018-06-13T20:29:46.046Z,70.16
2018-06-13T20:32:16.064Z,68.70
2018-06-13T20:34:46.041Z,67.13
2018-06-13T20:37:16.003Z,68.25
2018-06-13T20:39:45.849Z,68.96
2018-06-13T20:42:27.899Z,69.15
2018-06-13T20:45:01.854Z,69.21
2018-06-13T20:47:34.057Z,70.87
2018-06-13T20:50:03.965Z,71.90
2018-06-13T20:52:34.317Z,72.14
2018-06-13T20:55:04.280Z,73.46
2018-06-13T20:57:35.305Z,69.15
2018-06-13T21:00:07.118Z,67.28
2018-06-13T21:02:38.597Z,68.42
2018-06-13T21:05:09.015Z,71.06
2018-06-13T21:07:39.001Z,68.71
2018-06-13T21:10:09.068Z,66.75
2018-06-13T21:12:39.140Z,69.55
2018-06-13T21:15:13.012Z,69.90
2018-06-13T21:17:43.578Z,72.11
2018-06-13T21:20:15.847Z,69.86
2018-06-13T21:22:47.859Z,68.37
2018-06-13T21:25:18.446Z,70.27
2018-06-13T21:27:48.770Z,71.48
2018-06-13T21:30:18.816Z,71.08
2018-06-13T21:32:48.863Z,71.56
2018-06-13T21:35:18.842Z,71.93
2018-06-13T21:37:48.772Z,73.34
2018-06-13T21:40:18.868Z,73.15
2018-06-13T21:42:48.738Z,70.61
2018-06-13T21:45:18.810Z,70.27
2018-06-13T21:47:48.681Z,69.73
2018-06-13T21:50:18.676Z,68.83
2018-06-13T21:52:48.543Z,69.61
2018-06-13T21:55:18.881Z,69.23
2018-06-13T21:57:49.611Z,71.49
2018-06-13T22:00:19.623Z,71.90
2018-06-13T22:02:49.378Z,70.85
2018-06-13T22:05:19.254Z,70.38
2018-06-13T22:07:49.090Z,69.62
2018-06-13T22:10:19.344Z,70.12
2018-06-13T22:12:49.584Z,71.19
2018-06-13T22:15:35.999Z,72.41
2018-06-13T22:18:06.002Z,73.17
2018-06-13T22:20:35.942Z,75.25
2018-06-13T22:23:05.911Z,75.82
2018-06-13T22:25:35.748Z,73.11
2018-06-13T22:28:05.750Z,73.57
2018-06-13T22:30:35.461Z,70.90
2018-06-13T22:33:05.326Z,72.00
2018-06-13T22:35:37.828Z,73.12
2018-06-13T22:38:07.345Z,72.66
2018-06-13T22:40:37.142Z,70.57
2018-06-13T22:43:07.090Z,68.87
2018-06-13T22:45:55.640Z,68.38
2018-06-13T22:48:26.386Z,68.07
2018-06-13T22:50:56.874Z,69.45
2018-06-13T22:53:27.472Z,71.95
2018-06-13T22:55:57.876Z,73.64
2018-06-13T22:58:27.794Z,73.65
2018-06-13T23:01:08.044Z,75.24
2018-06-13T23:03:37.766Z,75.71
2018-06-13T23:06:08.924Z,75.35
2018-06-13T23:08:39.814Z,73.03
2018-06-13T23:11:09.790Z,74.74
2018-06-13T23:13:39.924Z,74.97
2018-06-13T23:16:09.714Z,72.47
2018-06-13T23:18:40.057Z,72.82
2018-06-13T23:21:09.983Z,73.43
2018-06-13T23:23:39.910Z,72.29
2018-06-13T23:26:09.883Z,72.43
2018-06-13T23:28:39.685Z,72.90
2018-06-13T23:31:09.559Z,72.58
2018-06-13T23:33:39.495Z,70.84
2018-06-13T23:36:09.370Z,71.67
2018-06-13T23:38:39.283Z,73.12
2018-06-13T23:41:09.151Z,72.81
2018-06-13T23:43:38.999Z,73.11
2018-06-13T23:46:08.826Z,74.32
2018-06-13T23:48:39.480Z,73.21
2018-06-13T23:51:09.511Z,72.60
2018-06-13T23:53:39.971Z,74.01
2018-06-13T23:56:10.914Z,73.80
2018-06-13T23:58:41.723Z,72.40
